Camroden, New York
Current Conditions -  °F | °C
As of 4:53 PM on Monday 20 Oct 2014 (Local Time) from KRME Reporting Station
Overcast Overcast  
Wind Chill: 53°   Ceiling: 8000
Heat Index: 53°   Visibility: 10mi
Dew Point: 39°   Wind: 5mph
Humidity: 59%   Direction: 200°SSW
Pressure: 29.91"   Gusts: NA
Location:  43.2466°N, 75.4624°W
Report Text: KRME 202053Z 20004KT 10SM OVC080 12/04 A2991 RMK AO2 SLP128 T01170039 58005
Loading
Personal Weather Stations






























Interactive Weather Map
Tropical Storm Tracking
New forecast layout! Learn more

10-Day Weather Forecast

Advertisements
Track Severe Weather on mobile